sensor_id;sensor_type;location;lat;lon;timestamp;P1;durP1;ratioP1;P2;durP2;ratioP2
18661;SDS011;61528;49.456;11.098;2023-04-03T00:00:11;1.80;;;1.67;;
18661;SDS011;61528;49.456;11.098;2023-04-03T00:02:38;2.10;;;1.60;;
18661;SDS011;61528;49.456;11.098;2023-04-03T00:05:05;1.73;;;1.63;;
18661;SDS011;61528;49.456;11.098;2023-04-03T00:07:32;2.00;;;1.80;;
18661;SDS011;61528;49.456;11.098;2023-04-03T00:09:58;2.70;;;2.10;;
18661;SDS011;61528;49.456;11.098;2023-04-03T00:12:24;1.83;;;1.70;;
18661;SDS011;61528;49.456;11.098;2023-04-03T00:14:50;1.90;;;1.70;;
18661;SDS011;61528;49.456;11.098;2023-04-03T00:17:17;1.60;;;1.50;;
18661;SDS011;61528;49.456;11.098;2023-04-03T00:19:43;5.00;;;1.80;;
18661;SDS011;61528;49.456;11.098;2023-04-03T00:22:10;3.90;;;1.90;;
18661;SDS011;61528;49.456;11.098;2023-04-03T00:24:36;3.20;;;2.00;;
18661;SDS011;61528;49.456;11.098;2023-04-03T00:27:02;3.73;;;1.87;;
18661;SDS011;61528;49.456;11.098;2023-04-03T00:29:28;2.47;;;1.80;;
18661;SDS011;61528;49.456;11.098;2023-04-03T00:31:55;2.77;;;1.93;;
18661;SDS011;61528;49.456;11.098;2023-04-03T00:34:21;1.60;;;1.50;;
18661;SDS011;61528;49.456;11.098;2023-04-03T00:36:48;2.00;;;1.80;;
18661;SDS011;61528;49.456;11.098;2023-04-03T00:39:14;2.87;;;1.70;;
18661;SDS011;61528;49.456;11.098;2023-04-03T00:41:40;3.13;;;1.70;;
18661;SDS011;61528;49.456;11.098;2023-04-03T00:47:03;2.80;;;1.53;;
18661;SDS011;61528;49.456;11.098;2023-04-03T00:49:31;2.90;;;2.00;;
18661;SDS011;61528;49.456;11.098;2023-04-03T00:51:57;3.33;;;2.10;;
18661;SDS011;61528;49.456;11.098;2023-04-03T00:54:25;2.37;;;1.90;;
18661;SDS011;61528;49.456;11.098;2023-04-03T00:56:52;2.17;;;1.70;;
18661;SDS011;61528;49.456;11.098;2023-04-03T00:59:30;1.80;;;1.50;;
18661;SDS011;61528;49.456;11.098;2023-04-03T01:01:57;1.73;;;1.63;;
18661;SDS011;61528;49.456;11.098;2023-04-03T01:04:57;2.30;;;1.80;;
18661;SDS011;61528;49.456;11.098;2023-04-03T01:07:17;2.47;;;1.60;;
18661;SDS011;61528;49.456;11.098;2023-04-03T01:09:44;3.10;;;1.70;;
18661;SDS011;61528;49.456;11.098;2023-04-03T01:12:21;3.77;;;1.83;;
18661;SDS011;61528;49.456;11.098;2023-04-03T01:14:48;2.97;;;1.60;;
18661;SDS011;61528;49.456;11.098;2023-04-03T01:19:52;1.90;;;1.60;;
18661;SDS011;61528;49.456;11.098;2023-04-03T01:22:25;3.27;;;2.13;;
18661;SDS011;61528;49.456;11.098;2023-04-03T01:24:52;2.57;;;1.70;;
18661;SDS011;61528;49.456;11.098;2023-04-03T01:27:19;2.30;;;1.57;;
18661;SDS011;61528;49.456;11.098;2023-04-03T01:29:46;2.17;;;1.63;;
18661;SDS011;61528;49.456;11.098;2023-04-03T01:32:12;2.20;;;1.60;;
18661;SDS011;61528;49.456;11.098;2023-04-03T01:34:38;4.23;;;1.90;;
18661;SDS011;61528;49.456;11.098;2023-04-03T01:37:04;3.47;;;1.97;;
18661;SDS011;61528;49.456;11.098;2023-04-03T01:39:31;2.50;;;1.83;;
18661;SDS011;61528;49.456;11.098;2023-04-03T01:41:57;2.57;;;1.90;;
18661;SDS011;61528;49.456;11.098;2023-04-03T01:44:24;2.37;;;1.90;;
18661;SDS011;61528;49.456;11.098;2023-04-03T01:46:50;2.03;;;1.70;;
18661;SDS011;61528;49.456;11.098;2023-04-03T01:49:16;1.70;;;1.60;;
18661;SDS011;61528;49.456;11.098;2023-04-03T01:51:43;2.00;;;1.47;;
18661;SDS011;61528;49.456;11.098;2023-04-03T01:54:13;1.73;;;1.53;;
18661;SDS011;61528;49.456;11.098;2023-04-03T01:56:39;2.40;;;1.63;;
18661;SDS011;61528;49.456;11.098;2023-04-03T01:59:05;1.77;;;1.60;;
18661;SDS011;61528;49.456;11.098;2023-04-03T02:01:31;2.17;;;1.47;;
18661;SDS011;61528;49.456;11.098;2023-04-03T02:03:58;2.20;;;1.50;;
18661;SDS011;61528;49.456;11.098;2023-04-03T02:06:24;1.73;;;1.40;;
18661;SDS011;61528;49.456;11.098;2023-04-03T02:08:51;3.33;;;1.40;;
18661;SDS011;61528;49.456;11.098;2023-04-03T02:11:17;2.37;;;1.47;;
18661;SDS011;61528;49.456;11.098;2023-04-03T02:13:43;2.33;;;1.47;;
18661;SDS011;61528;49.456;11.098;2023-04-03T02:16:10;1.57;;;1.47;;
18661;SDS011;61528;49.456;11.098;2023-04-03T02:18:37;2.20;;;1.47;;
18661;SDS011;61528;49.456;11.098;2023-04-03T02:21:04;1.90;;;1.50;;
18661;SDS011;61528;49.456;11.098;2023-04-03T02:23:30;1.73;;;1.30;;
18661;SDS011;61528;49.456;11.098;2023-04-03T02:26:04;1.60;;;1.47;;
18661;SDS011;61528;49.456;11.098;2023-04-03T02:28:31;1.60;;;1.20;;
18661;SDS011;61528;49.456;11.098;2023-04-03T02:30:57;2.87;;;1.70;;
18661;SDS011;61528;49.456;11.098;2023-04-03T02:33:23;1.40;;;1.20;;
18661;SDS011;61528;49.456;11.098;2023-04-03T02:35:53;2.13;;;1.40;;
18661;SDS011;61528;49.456;11.098;2023-04-03T02:38:20;1.97;;;1.70;;
18661;SDS011;61528;49.456;11.098;2023-04-03T02:40:47;2.83;;;1.50;;
18661;SDS011;61528;49.456;11.098;2023-04-03T02:43:13;2.57;;;1.70;;
18661;SDS011;61528;49.456;11.098;2023-04-03T02:45:39;1.70;;;1.53;;
18661;SDS011;61528;49.456;11.098;2023-04-03T02:48:06;1.87;;;1.60;;
18661;SDS011;61528;49.456;11.098;2023-04-03T02:50:32;2.63;;;1.70;;
18661;SDS011;61528;49.456;11.098;2023-04-03T02:52:58;2.47;;;1.60;;
18661;SDS011;61528;49.456;11.098;2023-04-03T02:55:25;1.83;;;1.63;;
18661;SDS011;61528;49.456;11.098;2023-04-03T02:57:51;2.30;;;1.73;;
18661;SDS011;61528;49.456;11.098;2023-04-03T03:00:17;2.27;;;1.57;;
18661;SDS011;61528;49.456;11.098;2023-04-03T03:02:44;1.67;;;1.57;;
18661;SDS011;61528;49.456;11.098;2023-04-03T03:05:10;1.60;;;1.50;;
18661;SDS011;61528;49.456;11.098;2023-04-03T03:07:36;1.83;;;1.60;;
18661;SDS011;61528;49.456;11.098;2023-04-03T03:10:02;1.90;;;1.77;;
18661;SDS011;61528;49.456;11.098;2023-04-03T03:12:29;2.40;;;1.80;;
18661;SDS011;61528;49.456;11.098;2023-04-03T03:14:55;2.10;;;1.57;;
18661;SDS011;61528;49.456;11.098;2023-04-03T03:17:22;2.40;;;1.73;;
18661;SDS011;61528;49.456;11.098;2023-04-03T03:19:48;4.40;;;2.03;;
18661;SDS011;61528;49.456;11.098;2023-04-03T03:22:16;2.47;;;2.10;;
18661;SDS011;61528;49.456;11.098;2023-04-03T03:24:42;1.90;;;1.60;;
18661;SDS011;61528;49.456;11.098;2023-04-03T03:27:09;2.03;;;1.70;;
18661;SDS011;61528;49.456;11.098;2023-04-03T03:29:35;2.50;;;1.80;;
18661;SDS011;61528;49.456;11.098;2023-04-03T03:32:02;2.83;;;2.00;;
18661;SDS011;61528;49.456;11.098;2023-04-03T03:34:28;2.77;;;2.10;;
18661;SDS011;61528;49.456;11.098;2023-04-03T03:36:54;3.57;;;2.00;;
18661;SDS011;61528;49.456;11.098;2023-04-03T03:39:21;2.87;;;1.90;;
18661;SDS011;61528;49.456;11.098;2023-04-03T03:41:47;2.47;;;1.90;;
18661;SDS011;61528;49.456;11.098;2023-04-03T03:44:14;2.97;;;2.07;;
18661;SDS011;61528;49.456;11.098;2023-04-03T03:46:41;2.90;;;2.03;;
18661;SDS011;61528;49.456;11.098;2023-04-03T03:49:07;2.77;;;1.83;;
18661;SDS011;61528;49.456;11.098;2023-04-03T03:51:33;2.87;;;2.00;;
18661;SDS011;61528;49.456;11.098;2023-04-03T03:54:00;3.20;;;1.90;;
18661;SDS011;61528;49.456;11.098;2023-04-03T03:56:26;3.03;;;2.30;;
18661;SDS011;61528;49.456;11.098;2023-04-03T03:58:53;2.57;;;2.17;;
18661;SDS011;61528;49.456;11.098;2023-04-03T04:01:21;3.23;;;2.10;;
18661;SDS011;61528;49.456;11.098;2023-04-03T04:03:48;3.53;;;2.20;;
18661;SDS011;61528;49.456;11.098;2023-04-03T04:06:14;3.07;;;2.10;;
18661;SDS011;61528;49.456;11.098;2023-04-03T04:08:41;4.33;;;2.60;;
18661;SDS011;61528;49.456;11.098;2023-04-03T04:11:08;4.83;;;2.50;;
18661;SDS011;61528;49.456;11.098;2023-04-03T04:13:34;5.50;;;2.90;;
18661;SDS011;61528;49.456;11.098;2023-04-03T04:16:00;4.17;;;3.10;;
18661;SDS011;61528;49.456;11.098;2023-04-03T04:18:27;4.50;;;3.30;;
18661;SDS011;61528;49.456;11.098;2023-04-03T04:20:53;3.97;;;2.67;;
18661;SDS011;61528;49.456;11.098;2023-04-03T04:23:19;3.53;;;2.53;;
18661;SDS011;61528;49.456;11.098;2023-04-03T04:25:46;4.40;;;2.33;;
18661;SDS011;61528;49.456;11.098;2023-04-03T04:28:12;3.93;;;2.47;;
18661;SDS011;61528;49.456;11.098;2023-04-03T04:30:39;4.17;;;2.73;;
18661;SDS011;61528;49.456;11.098;2023-04-03T04:33:05;4.53;;;2.60;;
18661;SDS011;61528;49.456;11.098;2023-04-03T04:35:32;3.47;;;2.50;;
18661;SDS011;61528;49.456;11.098;2023-04-03T04:37:58;4.77;;;2.80;;
18661;SDS011;61528;49.456;11.098;2023-04-03T04:40:25;3.77;;;2.27;;
18661;SDS011;61528;49.456;11.098;2023-04-03T04:42:51;5.77;;;2.87;;
18661;SDS011;61528;49.456;11.098;2023-04-03T04:45:18;4.60;;;2.80;;
18661;SDS011;61528;49.456;11.098;2023-04-03T04:47:44;5.60;;;2.60;;
18661;SDS011;61528;49.456;11.098;2023-04-03T04:50:11;2.90;;;2.17;;
18661;SDS011;61528;49.456;11.098;2023-04-03T04:52:37;3.63;;;2.20;;
18661;SDS011;61528;49.456;11.098;2023-04-03T04:55:04;3.33;;;2.33;;
18661;SDS011;61528;49.456;11.098;2023-04-03T04:57:30;3.10;;;2.20;;
18661;SDS011;61528;49.456;11.098;2023-04-03T04:59:56;3.17;;;2.40;;
18661;SDS011;61528;49.456;11.098;2023-04-03T05:02:23;4.07;;;2.37;;
18661;SDS011;61528;49.456;11.098;2023-04-03T05:04:49;3.40;;;2.40;;
18661;SDS011;61528;49.456;11.098;2023-04-03T05:07:17;3.63;;;2.60;;
18661;SDS011;61528;49.456;11.098;2023-04-03T05:09:43;3.03;;;2.50;;
18661;SDS011;61528;49.456;11.098;2023-04-03T05:12:09;4.17;;;2.90;;
18661;SDS011;61528;49.456;11.098;2023-04-03T05:14:36;6.07;;;2.77;;
18661;SDS011;61528;49.456;11.098;2023-04-03T05:17:02;4.90;;;2.53;;
18661;SDS011;61528;49.456;11.098;2023-04-03T05:19:28;3.83;;;2.20;;
18661;SDS011;61528;49.456;11.098;2023-04-03T05:21:54;3.80;;;2.60;;
18661;SDS011;61528;49.456;11.098;2023-04-03T05:24:21;3.00;;;2.20;;
18661;SDS011;61528;49.456;11.098;2023-04-03T05:26:47;4.67;;;2.70;;
18661;SDS011;61528;49.456;11.098;2023-04-03T05:29:13;4.20;;;2.63;;
18661;SDS011;61528;49.456;11.098;2023-04-03T05:31:39;4.83;;;2.90;;
18661;SDS011;61528;49.456;11.098;2023-04-03T05:34:06;3.93;;;2.60;;
18661;SDS011;61528;49.456;11.098;2023-04-03T05:36:32;6.07;;;2.80;;
18661;SDS011;61528;49.456;11.098;2023-04-03T05:38:58;4.70;;;2.67;;
18661;SDS011;61528;49.456;11.098;2023-04-03T05:41:25;3.90;;;2.37;;
18661;SDS011;61528;49.456;11.098;2023-04-03T05:43:51;2.93;;;2.17;;
18661;SDS011;61528;49.456;11.098;2023-04-03T05:46:18;4.90;;;2.70;;
18661;SDS011;61528;49.456;11.098;2023-04-03T05:48:46;4.67;;;2.53;;
18661;SDS011;61528;49.456;11.098;2023-04-03T05:51:32;3.27;;;2.27;;
18661;SDS011;61528;49.456;11.098;2023-04-03T05:54:05;4.50;;;2.77;;
18661;SDS011;61528;49.456;11.098;2023-04-03T05:56:32;3.67;;;2.70;;
18661;SDS011;61528;49.456;11.098;2023-04-03T05:58:59;3.93;;;2.60;;
18661;SDS011;61528;49.456;11.098;2023-04-03T06:01:25;8.57;;;2.63;;
18661;SDS011;61528;49.456;11.098;2023-04-03T06:03:52;3.97;;;2.80;;
18661;SDS011;61528;49.456;11.098;2023-04-03T06:06:19;5.60;;;3.17;;
18661;SDS011;61528;49.456;11.098;2023-04-03T06:08:47;4.83;;;2.37;;
18661;SDS011;61528;49.456;11.098;2023-04-03T06:11:13;6.73;;;2.83;;
18661;SDS011;61528;49.456;11.098;2023-04-03T06:13:40;6.50;;;4.00;;
18661;SDS011;61528;49.456;11.098;2023-04-03T06:16:06;5.07;;;2.63;;
18661;SDS011;61528;49.456;11.098;2023-04-03T06:18:34;4.77;;;2.20;;
18661;SDS011;61528;49.456;11.098;2023-04-03T06:21:00;4.07;;;2.60;;
18661;SDS011;61528;49.456;11.098;2023-04-03T06:23:27;4.63;;;2.30;;
18661;SDS011;61528;49.456;11.098;2023-04-03T06:25:54;4.47;;;2.47;;
18661;SDS011;61528;49.456;11.098;2023-04-03T06:28:20;6.50;;;2.53;;
18661;SDS011;61528;49.456;11.098;2023-04-03T06:30:46;6.30;;;2.50;;
18661;SDS011;61528;49.456;11.098;2023-04-03T06:33:13;2.70;;;2.13;;
18661;SDS011;61528;49.456;11.098;2023-04-03T06:35:39;6.43;;;2.40;;
18661;SDS011;61528;49.456;11.098;2023-04-03T06:38:06;3.80;;;2.27;;
18661;SDS011;61528;49.456;11.098;2023-04-03T06:40:34;4.00;;;2.10;;
18661;SDS011;61528;49.456;11.098;2023-04-03T06:43:01;3.57;;;2.20;;
18661;SDS011;61528;49.456;11.098;2023-04-03T06:45:27;2.87;;;2.03;;
18661;SDS011;61528;49.456;11.098;2023-04-03T06:47:53;5.70;;;2.20;;
18661;SDS011;61528;49.456;11.098;2023-04-03T06:50:20;3.70;;;1.93;;
18661;SDS011;61528;49.456;11.098;2023-04-03T06:52:46;5.73;;;1.90;;
18661;SDS011;61528;49.456;11.098;2023-04-03T06:55:13;4.20;;;2.20;;
18661;SDS011;61528;49.456;11.098;2023-04-03T06:57:39;2.63;;;2.10;;
18661;SDS011;61528;49.456;11.098;2023-04-03T07:00:06;4.07;;;2.30;;
18661;SDS011;61528;49.456;11.098;2023-04-03T07:02:32;5.60;;;2.17;;
18661;SDS011;61528;49.456;11.098;2023-04-03T07:04:58;4.33;;;1.90;;
18661;SDS011;61528;49.456;11.098;2023-04-03T07:07:25;5.27;;;2.33;;
18661;SDS011;61528;49.456;11.098;2023-04-03T07:09:51;3.97;;;2.43;;
18661;SDS011;61528;49.456;11.098;2023-04-03T07:12:18;2.10;;;1.63;;
18661;SDS011;61528;49.456;11.098;2023-04-03T07:14:44;3.77;;;2.20;;
18661;SDS011;61528;49.456;11.098;2023-04-03T07:17:10;3.93;;;2.60;;
18661;SDS011;61528;49.456;11.098;2023-04-03T07:19:37;4.67;;;2.20;;
18661;SDS011;61528;49.456;11.098;2023-04-03T07:22:03;3.60;;;1.97;;
18661;SDS011;61528;49.456;11.098;2023-04-03T07:24:29;3.83;;;2.30;;
18661;SDS011;61528;49.456;11.098;2023-04-03T07:26:55;3.60;;;2.27;;
18661;SDS011;61528;49.456;11.098;2023-04-03T07:29:22;6.13;;;2.30;;
18661;SDS011;61528;49.456;11.098;2023-04-03T07:31:48;6.23;;;2.13;;
18661;SDS011;61528;49.456;11.098;2023-04-03T07:34:15;5.63;;;2.30;;
18661;SDS011;61528;49.456;11.098;2023-04-03T07:36:41;3.97;;;2.27;;
18661;SDS011;61528;49.456;11.098;2023-04-03T07:39:07;3.20;;;2.23;;
18661;SDS011;61528;49.456;11.098;2023-04-03T07:41:34;5.00;;;2.20;;
18661;SDS011;61528;49.456;11.098;2023-04-03T07:44:00;4.13;;;2.23;;
18661;SDS011;61528;49.456;11.098;2023-04-03T07:46:27;4.60;;;2.60;;
18661;SDS011;61528;49.456;11.098;2023-04-03T07:48:54;4.57;;;2.07;;
18661;SDS011;61528;49.456;11.098;2023-04-03T07:51:20;5.07;;;2.60;;
18661;SDS011;61528;49.456;11.098;2023-04-03T07:53:46;4.60;;;2.37;;
18661;SDS011;61528;49.456;11.098;2023-04-03T07:56:13;4.03;;;2.47;;
18661;SDS011;61528;49.456;11.098;2023-04-03T07:58:40;3.73;;;2.37;;
18661;SDS011;61528;49.456;11.098;2023-04-03T08:01:08;5.90;;;2.40;;
18661;SDS011;61528;49.456;11.098;2023-04-03T08:03:34;5.13;;;2.13;;
18661;SDS011;61528;49.456;11.098;2023-04-03T08:06:03;4.43;;;2.10;;
18661;SDS011;61528;49.456;11.098;2023-04-03T08:08:31;3.10;;;2.30;;
18661;SDS011;61528;49.456;11.098;2023-04-03T08:10:58;3.37;;;1.93;;
18661;SDS011;61528;49.456;11.098;2023-04-03T08:13:25;3.90;;;2.40;;
18661;SDS011;61528;49.456;11.098;2023-04-03T08:15:53;3.47;;;2.30;;
18661;SDS011;61528;49.456;11.098;2023-04-03T08:18:21;3.40;;;2.07;;
18661;SDS011;61528;49.456;11.098;2023-04-03T08:20:50;2.67;;;2.00;;
18661;SDS011;61528;49.456;11.098;2023-04-03T08:23:17;4.73;;;2.00;;
18661;SDS011;61528;49.456;11.098;2023-04-03T08:25:43;4.17;;;2.60;;
18661;SDS011;61528;49.456;11.098;2023-04-03T08:28:10;2.60;;;1.80;;
18661;SDS011;61528;49.456;11.098;2023-04-03T08:30:40;3.43;;;2.00;;
18661;SDS011;61528;49.456;11.098;2023-04-03T08:33:07;4.60;;;2.83;;
18661;SDS011;61528;49.456;11.098;2023-04-03T08:35:37;4.50;;;2.23;;
18661;SDS011;61528;49.456;11.098;2023-04-03T08:38:05;3.47;;;2.40;;
18661;SDS011;61528;49.456;11.098;2023-04-03T08:40:32;4.13;;;2.20;;
18661;SDS011;61528;49.456;11.098;2023-04-03T08:45:43;2.43;;;1.87;;
18661;SDS011;61528;49.456;11.098;2023-04-03T08:48:13;3.73;;;1.90;;
18661;SDS011;61528;49.456;11.098;2023-04-03T08:50:45;2.57;;;1.80;;
18661;SDS011;61528;49.456;11.098;2023-04-03T08:53:20;4.70;;;2.23;;
18661;SDS011;61528;49.456;11.098;2023-04-03T08:55:48;3.87;;;2.10;;
18661;SDS011;61528;49.456;11.098;2023-04-03T08:58:16;2.93;;;1.73;;
18661;SDS011;61528;49.456;11.098;2023-04-03T09:03:36;2.57;;;1.90;;
18661;SDS011;61528;49.456;11.098;2023-04-03T09:06:11;4.63;;;2.13;;
18661;SDS011;61528;49.456;11.098;2023-04-03T09:19:38;3.20;;;1.90;;
18661;SDS011;61528;49.456;11.098;2023-04-03T09:22:17;3.67;;;1.70;;
18661;SDS011;61528;49.456;11.098;2023-04-03T09:24:45;2.50;;;1.90;;
18661;SDS011;61528;49.456;11.098;2023-04-03T09:27:13;3.37;;;1.73;;
18661;SDS011;61528;49.456;11.098;2023-04-03T09:29:40;3.07;;;1.73;;
18661;SDS011;61528;49.456;11.098;2023-04-03T09:32:27;3.13;;;2.00;;
18661;SDS011;61528;49.456;11.098;2023-04-03T09:34:54;2.17;;;1.40;;
18661;SDS011;61528;49.456;11.098;2023-04-03T09:37:41;2.20;;;1.67;;
18661;SDS011;61528;49.456;11.098;2023-04-03T09:40:27;3.03;;;1.63;;
18661;SDS011;61528;49.456;11.098;2023-04-03T09:42:55;1.90;;;1.53;;
18661;SDS011;61528;49.456;11.098;2023-04-03T09:45:24;3.13;;;1.93;;
18661;SDS011;61528;49.456;11.098;2023-04-03T09:48:36;3.50;;;2.07;;
18661;SDS011;61528;49.456;11.098;2023-04-03T09:50:37;4.13;;;2.00;;
18661;SDS011;61528;49.456;11.098;2023-04-03T09:53:05;2.13;;;1.60;;
18661;SDS011;61528;49.456;11.098;2023-04-03T09:55:32;3.40;;;1.80;;
18661;SDS011;61528;49.456;11.098;2023-04-03T09:57:59;3.23;;;1.90;;
18661;SDS011;61528;49.456;11.098;2023-04-03T10:00:35;3.00;;;2.00;;
18661;SDS011;61528;49.456;11.098;2023-04-03T10:03:03;3.23;;;1.53;;
18661;SDS011;61528;49.456;11.098;2023-04-03T10:05:33;3.83;;;2.00;;
18661;SDS011;61528;49.456;11.098;2023-04-03T10:08:22;2.13;;;1.63;;
18661;SDS011;61528;49.456;11.098;2023-04-03T10:11:05;2.27;;;1.70;;
18661;SDS011;61528;49.456;11.098;2023-04-03T10:13:33;2.13;;;1.67;;
18661;SDS011;61528;49.456;11.098;2023-04-03T10:16:02;2.67;;;1.53;;
18661;SDS011;61528;49.456;11.098;2023-04-03T10:24:13;2.90;;;1.73;;
18661;SDS011;61528;49.456;11.098;2023-04-03T10:26:44;2.30;;;1.70;;
18661;SDS011;61528;49.456;11.098;2023-04-03T10:31:59;3.00;;;1.50;;
18661;SDS011;61528;49.456;11.098;2023-04-03T10:34:31;2.67;;;1.67;;
18661;SDS011;61528;49.456;11.098;2023-04-03T10:37:08;3.50;;;1.87;;
18661;SDS011;61528;49.456;11.098;2023-04-03T10:57:58;2.37;;;1.50;;
18661;SDS011;61528;49.456;11.098;2023-04-03T11:02:58;2.13;;;1.50;;
18661;SDS011;61528;49.456;11.098;2023-04-03T11:05:44;2.20;;;1.70;;
18661;SDS011;61528;49.456;11.098;2023-04-03T11:08:33;3.03;;;1.80;;
18661;SDS011;61528;49.456;11.098;2023-04-03T11:11:03;4.00;;;1.70;;
18661;SDS011;61528;49.456;11.098;2023-04-03T11:13:45;2.63;;;1.60;;
18661;SDS011;61528;49.456;11.098;2023-04-03T11:16:15;3.23;;;1.50;;
18661;SDS011;61528;49.456;11.098;2023-04-03T11:21:33;3.00;;;1.83;;
18661;SDS011;61528;49.456;11.098;2023-04-03T11:24:01;2.67;;;1.50;;
18661;SDS011;61528;49.456;11.098;2023-04-03T11:26:40;2.53;;;1.60;;
18661;SDS011;61528;49.456;11.098;2023-04-03T11:29:12;2.00;;;1.47;;
18661;SDS011;61528;49.456;11.098;2023-04-03T11:34:16;2.03;;;1.30;;
18661;SDS011;61528;49.456;11.098;2023-04-03T11:36:47;2.20;;;1.30;;
18661;SDS011;61528;49.456;11.098;2023-04-03T11:39:20;1.57;;;1.43;;
18661;SDS011;61528;49.456;11.098;2023-04-03T11:41:48;1.87;;;1.20;;
18661;SDS011;61528;49.456;11.098;2023-04-03T11:44:34;1.60;;;1.20;;
18661;SDS011;61528;49.456;11.098;2023-04-03T11:47:07;1.90;;;1.27;;
18661;SDS011;61528;49.456;11.098;2023-04-03T11:49:50;1.73;;;1.30;;
18661;SDS011;61528;49.456;11.098;2023-04-03T12:13:36;1.20;;;1.00;;
18661;SDS011;61528;49.456;11.098;2023-04-03T12:16:05;1.77;;;1.10;;
18661;SDS011;61528;49.456;11.098;2023-04-03T12:18:41;1.93;;;1.33;;
18661;SDS011;61528;49.456;11.098;2023-04-03T12:21:09;3.77;;;1.60;;
18661;SDS011;61528;49.456;11.098;2023-04-03T12:23:36;1.63;;;1.40;;
18661;SDS011;61528;49.456;11.098;2023-04-03T12:26:25;2.23;;;1.40;;
18661;SDS011;61528;49.456;11.098;2023-04-03T12:28:51;2.40;;;1.70;;
18661;SDS011;61528;49.456;11.098;2023-04-03T12:31:19;2.20;;;1.80;;
18661;SDS011;61528;49.456;11.098;2023-04-03T12:39:27;1.97;;;1.47;;
18661;SDS011;61528;49.456;11.098;2023-04-03T12:44:52;2.90;;;1.50;;
18661;SDS011;61528;49.456;11.098;2023-04-03T12:47:25;2.17;;;1.40;;
18661;SDS011;61528;49.456;11.098;2023-04-03T12:49:52;2.33;;;1.53;;
18661;SDS011;61528;49.456;11.098;2023-04-03T12:55:00;2.33;;;1.67;;
18661;SDS011;61528;49.456;11.098;2023-04-03T12:57:29;1.50;;;1.37;;
18661;SDS011;61528;49.456;11.098;2023-04-03T12:59:56;2.70;;;1.63;;
18661;SDS011;61528;49.456;11.098;2023-04-03T13:02:26;1.77;;;1.40;;
18661;SDS011;61528;49.456;11.098;2023-04-03T13:04:55;1.53;;;1.40;;
18661;SDS011;61528;49.456;11.098;2023-04-03T13:07:29;4.27;;;1.70;;
18661;SDS011;61528;49.456;11.098;2023-04-03T13:12:31;1.97;;;1.70;;
18661;SDS011;61528;49.456;11.098;2023-04-03T13:15:02;2.50;;;1.77;;
18661;SDS011;61528;49.456;11.098;2023-04-03T13:17:29;1.80;;;1.57;;
18661;SDS011;61528;49.456;11.098;2023-04-03T13:20:11;2.90;;;1.60;;
18661;SDS011;61528;49.456;11.098;2023-04-03T13:22:47;1.67;;;1.40;;
18661;SDS011;61528;49.456;11.098;2023-04-03T13:25:14;2.80;;;1.87;;
18661;SDS011;61528;49.456;11.098;2023-04-03T13:27:42;2.27;;;1.70;;
18661;SDS011;61528;49.456;11.098;2023-04-03T13:30:23;2.27;;;1.47;;
18661;SDS011;61528;49.456;11.098;2023-04-03T13:32:50;2.73;;;1.67;;
18661;SDS011;61528;49.456;11.098;2023-04-03T13:35:30;1.87;;;1.40;;
18661;SDS011;61528;49.456;11.098;2023-04-03T13:37:59;1.43;;;1.33;;
18661;SDS011;61528;49.456;11.098;2023-04-03T13:40:27;2.10;;;1.60;;
18661;SDS011;61528;49.456;11.098;2023-04-03T13:43:14;3.00;;;1.60;;
18661;SDS011;61528;49.456;11.098;2023-04-03T13:45:53;2.63;;;1.63;;
18661;SDS011;61528;49.456;11.098;2023-04-03T13:48:21;2.00;;;1.53;;
18661;SDS011;61528;49.456;11.098;2023-04-03T13:50:52;2.27;;;1.83;;
18661;SDS011;61528;49.456;11.098;2023-04-03T13:53:19;1.60;;;1.43;;
18661;SDS011;61528;49.456;11.098;2023-04-03T13:58:27;2.83;;;1.73;;
18661;SDS011;61528;49.456;11.098;2023-04-03T14:03:32;3.50;;;1.80;;
18661;SDS011;61528;49.456;11.098;2023-04-03T14:05:58;3.23;;;1.60;;
18661;SDS011;61528;49.456;11.098;2023-04-03T14:08:26;3.43;;;1.37;;
18661;SDS011;61528;49.456;11.098;2023-04-03T14:10:52;2.00;;;1.80;;
18661;SDS011;61528;49.456;11.098;2023-04-03T14:13:20;2.23;;;1.30;;
18661;SDS011;61528;49.456;11.098;2023-04-03T14:15:47;2.80;;;1.60;;
18661;SDS011;61528;49.456;11.098;2023-04-03T14:18:15;2.40;;;1.70;;
18661;SDS011;61528;49.456;11.098;2023-04-03T14:20:42;1.87;;;1.43;;
18661;SDS011;61528;49.456;11.098;2023-04-03T14:23:08;1.60;;;1.40;;
18661;SDS011;61528;49.456;11.098;2023-04-03T14:25:35;2.03;;;1.60;;
18661;SDS011;61528;49.456;11.098;2023-04-03T14:28:06;3.33;;;1.50;;
18661;SDS011;61528;49.456;11.098;2023-04-03T14:30:38;2.17;;;1.60;;
18661;SDS011;61528;49.456;11.098;2023-04-03T14:33:06;2.90;;;1.60;;
18661;SDS011;61528;49.456;11.098;2023-04-03T14:35:32;1.90;;;1.50;;
18661;SDS011;61528;49.456;11.098;2023-04-03T14:37:58;2.17;;;1.70;;
18661;SDS011;61528;49.456;11.098;2023-04-03T14:40:26;3.70;;;1.50;;
18661;SDS011;61528;49.456;11.098;2023-04-03T14:42:53;1.70;;;1.60;;
18661;SDS011;61528;49.456;11.098;2023-04-03T14:45:21;1.97;;;1.37;;
18661;SDS011;61528;49.456;11.098;2023-04-03T14:47:48;2.67;;;1.63;;
18661;SDS011;61528;49.456;11.098;2023-04-03T14:50:16;1.50;;;1.40;;
18661;SDS011;61528;49.456;11.098;2023-04-03T14:52:43;2.40;;;1.80;;
18661;SDS011;61528;49.456;11.098;2023-04-03T14:55:11;2.60;;;1.60;;
18661;SDS011;61528;49.456;11.098;2023-04-03T14:57:38;3.03;;;1.80;;
18661;SDS011;61528;49.456;11.098;2023-04-03T15:00:06;2.97;;;1.80;;
18661;SDS011;61528;49.456;11.098;2023-04-03T15:02:34;2.20;;;1.60;;
18661;SDS011;61528;49.456;11.098;2023-04-03T15:05:02;3.07;;;1.37;;
18661;SDS011;61528;49.456;11.098;2023-04-03T15:07:31;2.70;;;1.63;;
18661;SDS011;61528;49.456;11.098;2023-04-03T15:10:00;2.80;;;1.73;;
18661;SDS011;61528;49.456;11.098;2023-04-03T15:12:28;2.37;;;1.60;;
18661;SDS011;61528;49.456;11.098;2023-04-03T15:14:54;1.93;;;1.30;;
18661;SDS011;61528;49.456;11.098;2023-04-03T15:17:21;2.33;;;1.63;;
18661;SDS011;61528;49.456;11.098;2023-04-03T15:19:49;4.03;;;2.10;;
18661;SDS011;61528;49.456;11.098;2023-04-03T15:22:16;2.73;;;1.40;;
18661;SDS011;61528;49.456;11.098;2023-04-03T15:24:43;2.43;;;1.53;;
18661;SDS011;61528;49.456;11.098;2023-04-03T15:27:10;2.20;;;1.60;;
18661;SDS011;61528;49.456;11.098;2023-04-03T15:29:38;2.43;;;1.80;;
18661;SDS011;61528;49.456;11.098;2023-04-03T15:32:05;3.30;;;1.43;;
18661;SDS011;61528;49.456;11.098;2023-04-03T15:34:32;2.23;;;1.60;;
18661;SDS011;61528;49.456;11.098;2023-04-03T15:37:00;1.50;;;1.40;;
18661;SDS011;61528;49.456;11.098;2023-04-03T15:39:26;3.37;;;1.47;;
18661;SDS011;61528;49.456;11.098;2023-04-03T15:41:55;2.47;;;1.47;;
18661;SDS011;61528;49.456;11.098;2023-04-03T15:44:25;4.17;;;2.00;;
18661;SDS011;61528;49.456;11.098;2023-04-03T15:46:51;3.47;;;1.30;;
18661;SDS011;61528;49.456;11.098;2023-04-03T15:49:18;2.13;;;1.60;;
18661;SDS011;61528;49.456;11.098;2023-04-03T15:51:45;3.57;;;1.80;;
18661;SDS011;61528;49.456;11.098;2023-04-03T15:54:11;2.03;;;1.60;;
18661;SDS011;61528;49.456;11.098;2023-04-03T15:56:38;2.27;;;1.50;;
18661;SDS011;61528;49.456;11.098;2023-04-03T15:59:04;2.77;;;1.60;;
18661;SDS011;61528;49.456;11.098;2023-04-03T16:01:31;2.70;;;1.60;;
18661;SDS011;61528;49.456;11.098;2023-04-03T16:03:57;2.63;;;1.80;;
18661;SDS011;61528;49.456;11.098;2023-04-03T16:06:23;3.60;;;1.63;;
18661;SDS011;61528;49.456;11.098;2023-04-03T16:08:50;2.90;;;1.50;;
18661;SDS011;61528;49.456;11.098;2023-04-03T16:11:17;2.83;;;1.53;;
18661;SDS011;61528;49.456;11.098;2023-04-03T16:13:43;2.40;;;1.50;;
18661;SDS011;61528;49.456;11.098;2023-04-03T16:16:10;2.53;;;1.63;;